Aérodrome :
LOGIN :

S'inscrire | Disclaimer

   EN    FR    IT 

 










Légende :    VFR   VFR Marginal   IFR   IFR Intensif   IFR Très Intensif
Visi : 
Plafond : 
>= 8 km
>= 3000ft
5 à 8 km
1000 à 3000 ft
1500m à 5 km
500 à 1000 ft
800 à 1500m
200 à 500 ft
< 800m
< 200 ft
Symboles :   Orages  Brouillard  Fortes neiges  Fortes précipitations  Vent > 20 kt
SIGMETs :   Divers  Orages  Givrage  Turbulence  Onde Orograph.  Cendres Volcan.







- Altitude de l'aérodrome : 220 ft
- Code IATA : CWL
- Voir les cartes d'approche


EGFF - Cardiff Rhoose

DERNIER METAR :
  • 261820Z AUTO 13012KT 9999 NCD 22/13 Q1013

METARs EXPIRÉS :
  • 261750Z AUTO 13010KT 9999 NCD 22/13 Q1013
  • 261720Z AUTO 12010KT 9999 NCD 23/13 Q1013
  • 261650Z AUTO 11012KT 9999 NCD 23/13 Q1013
  • 261620Z AUTO 11013KT 9999 NCD 24/13 Q1013
  • 261550Z AUTO 11013KT 9999 NCD 24/13 Q1013

TAF TAF EGFF
Valide du 26 à 18h jusqu'au 27 à 18h UTC


261654Z 2618/2718 12012KT CAVOK
BECMG 2623/2702 06008KT
TEMPO 2702/2706 7000 SHRA
PROB30
TEMPO 2703/2706 4000 +SHRA BKN045CB
BECMG 2706/2709 23010KT BKN020
PROB30
TEMPO 2709/2718 BKN014
ATIS : +44 1446 729 319
Pas de NOTAMs connus pour ce terrain.



MET'MAP, la Météo Aéronautique d'un coup d'oeil ! - Copyright ORBIFLY Décembre 2007 - Disclaimer

ORBIFLY MET'MAP TEAM :

Programmation & Développement : Alexandra Zaïnal
Conception & Développement : Baudouin d'Aumeries
Co-Programmation & Développement : Marc-Olivier Méhu
Soutien technique & logistique : Manuel Goepfert

Contact : metmap@orbifly.com




SOURCES & CREDITS :

   NOAA